createdAt,value
2022-10-22T00:00:00.034Z,48.69
2022-10-22T00:02:28.875Z,48.56
2022-10-22T00:04:57.038Z,48.49
2022-10-22T00:07:24.511Z,48.46
2022-10-22T00:09:51.039Z,48.49
2022-10-22T00:12:17.539Z,48.63
2022-10-22T00:14:44.011Z,48.61
2022-10-22T00:17:11.504Z,48.57
2022-10-22T00:19:38.616Z,48.36
2022-10-22T00:22:08.728Z,48.22
2022-10-22T00:24:35.211Z,48.24
2022-10-22T00:27:03.902Z,48.12
2022-10-22T00:29:31.386Z,48.21
2022-10-22T00:31:57.847Z,48.06
2022-10-22T00:34:27.936Z,47.96
2022-10-22T00:36:55.042Z,48.00
2022-10-22T00:39:23.379Z,48.02
2022-10-22T00:41:50.781Z,48.16
2022-10-22T00:48:05.754Z,48.16
2022-10-22T00:50:40.216Z,47.86
2022-10-22T00:53:12.955Z,48.11
2022-10-22T00:55:52.759Z,47.97
2022-10-22T00:58:21.204Z,47.87
2022-10-22T01:00:50.801Z,48.10
2022-10-22T01:03:17.304Z,47.99
2022-10-22T01:05:52.265Z,48.22
2022-10-22T01:08:27.019Z,47.95
2022-10-22T01:11:15.455Z,48.07
2022-10-22T01:13:51.512Z,47.95
2022-10-22T01:16:23.132Z,48.04
2022-10-22T01:19:30.569Z,47.93
2022-10-22T01:22:24.733Z,48.15
2022-10-22T01:24:59.614Z,48.22
2022-10-22T01:28:05.565Z,48.26
2022-10-22T01:30:32.431Z,48.26
2022-10-22T01:33:01.113Z,48.25
2022-10-22T01:35:35.223Z,48.46
2022-10-22T01:38:07.724Z,48.39
2022-10-22T01:40:35.192Z,48.23
2022-10-22T01:43:03.908Z,48.16
2022-10-22T01:45:32.766Z,48.18
2022-10-22T01:48:07.523Z,48.23
2022-10-22T01:50:55.519Z,48.19
2022-10-22T01:53:31.198Z,48.30
2022-10-22T01:56:19.833Z,48.04
2022-10-22T01:58:54.223Z,48.22
2022-10-22T02:01:36.699Z,48.13
2022-10-22T02:04:13.552Z,48.01
2022-10-22T02:06:42.438Z,48.36
2022-10-22T02:09:10.494Z,48.18
2022-10-22T02:11:37.258Z,48.11
2022-10-22T02:14:05.896Z,47.86
2022-10-22T02:16:42.549Z,48.21
2022-10-22T02:19:35.679Z,48.18
2022-10-22T02:22:02.142Z,47.95
2022-10-22T02:24:28.607Z,48.04
2022-10-22T02:27:01.793Z,48.15
2022-10-22T02:29:30.931Z,48.00
2022-10-22T02:32:02.368Z,48.07
2022-10-22T02:34:32.603Z,48.05
2022-10-22T02:39:46.203Z,48.15
2022-10-22T02:42:13.180Z,48.24
2022-10-22T02:44:40.289Z,48.12
2022-10-22T02:47:07.103Z,48.28
2022-10-22T02:49:34.883Z,48.07
2022-10-22T02:52:01.466Z,48.33
2022-10-22T02:54:30.362Z,48.33
2022-10-22T02:56:56.828Z,48.44
2022-10-22T02:59:23.344Z,48.36
2022-10-22T03:01:50.305Z,48.20
2022-10-22T03:04:16.997Z,48.09
2022-10-22T03:06:45.684Z,48.20
2022-10-22T03:09:12.502Z,48.25
2022-10-22T03:11:38.970Z,48.18
2022-10-22T03:14:05.491Z,48.19
2022-10-22T03:16:32.858Z,48.10
2022-10-22T03:19:02.880Z,48.30
2022-10-22T03:21:39.687Z,48.16
2022-10-22T03:24:11.983Z,48.26
2022-10-22T03:26:38.888Z,47.83
2022-10-22T03:29:06.591Z,48.21
2022-10-22T03:31:33.109Z,48.09
2022-10-22T03:34:03.876Z,48.25
2022-10-22T03:36:30.857Z,48.12
2022-10-22T03:38:59.867Z,48.26
2022-10-22T03:41:27.111Z,48.24
2022-10-22T03:43:54.559Z,48.29
2022-10-22T03:46:21.047Z,48.08
2022-10-22T03:48:48.926Z,48.27
2022-10-22T03:51:16.752Z,48.08
2022-10-22T03:53:44.558Z,48.03
2022-10-22T03:56:13.672Z,48.32
2022-10-22T03:58:40.943Z,48.11
2022-10-22T04:01:09.890Z,48.11
2022-10-22T04:03:37.984Z,48.20
2022-10-22T04:06:06.127Z,48.36
2022-10-22T04:08:34.088Z,48.38
2022-10-22T04:11:00.617Z,48.10
2022-10-22T04:13:27.153Z,48.25
2022-10-22T04:15:54.039Z,48.11
2022-10-22T04:18:22.813Z,48.19
2022-10-22T04:20:51.248Z,48.45
2022-10-22T04:23:17.934Z,48.40
2022-10-22T04:25:44.395Z,48.22
2022-10-22T04:28:11.870Z,48.20
2022-10-22T04:30:38.336Z,48.11
2022-10-22T04:33:05.170Z,48.38
2022-10-22T04:35:31.629Z,48.53
2022-10-22T04:37:58.162Z,48.14
2022-10-22T04:40:27.279Z,48.06
2022-10-22T04:42:53.761Z,48.14
2022-10-22T04:45:21.417Z,48.13
2022-10-22T04:47:47.871Z,48.15
2022-10-22T04:50:18.077Z,48.29
2022-10-22T04:52:44.540Z,48.18
2022-10-22T04:55:11.222Z,48.16
2022-10-22T04:57:37.881Z,48.12
2022-10-22T05:00:04.796Z,48.04
2022-10-22T05:02:31.259Z,48.22
2022-10-22T05:04:59.874Z,48.13
2022-10-22T05:07:31.933Z,48.18
2022-10-22T05:09:58.395Z,48.30
2022-10-22T05:12:26.025Z,48.16
2022-10-22T05:14:52.804Z,48.24
2022-10-22T05:17:20.452Z,48.15
2022-10-22T05:19:46.906Z,48.24
2022-10-22T05:22:14.616Z,48.35
2022-10-22T05:24:44.192Z,48.48
2022-10-22T05:27:10.707Z,48.30
2022-10-22T05:29:37.221Z,48.21
2022-10-22T05:32:04.937Z,48.37
2022-10-22T05:34:33.277Z,48.55
2022-10-22T05:37:01.695Z,48.38
2022-10-22T05:39:28.170Z,48.45
2022-10-22T05:41:56.881Z,48.46
2022-10-22T05:44:23.345Z,48.38
2022-10-22T05:46:50.094Z,48.40
2022-10-22T05:49:16.713Z,48.26
2022-10-22T05:51:45.710Z,48.27
2022-10-22T05:54:19.389Z,48.25
2022-10-22T05:56:48.115Z,48.00
2022-10-22T05:59:14.634Z,47.96
2022-10-22T06:01:43.189Z,48.01
2022-10-22T06:04:10.951Z,48.09
2022-10-22T06:06:48.843Z,47.82
2022-10-22T06:09:21.506Z,47.59
2022-10-22T06:11:48.395Z,47.45
2022-10-22T06:14:15.329Z,47.17
2022-10-22T06:16:43.864Z,47.23
2022-10-22T06:19:13.350Z,47.05
2022-10-22T06:21:39.814Z,47.14
2022-10-22T06:24:06.607Z,47.27
2022-10-22T06:26:33.433Z,47.23
2022-10-22T06:29:00.162Z,47.26
2022-10-22T06:31:28.851Z,47.13
2022-10-22T06:33:58.845Z,47.44
2022-10-22T06:36:25.827Z,47.49
2022-10-22T06:38:54.455Z,47.68
2022-10-22T06:41:24.352Z,48.02
2022-10-22T06:43:53.625Z,47.98
2022-10-22T06:46:21.939Z,48.15
2022-10-22T06:48:56.301Z,48.09
2022-10-22T06:51:23.130Z,47.95
2022-10-22T06:53:49.636Z,48.22
2022-10-22T06:56:18.343Z,48.40
2022-10-22T06:58:49.095Z,48.46
2022-10-22T07:01:17.009Z,48.47
2022-10-22T07:03:43.626Z,48.70
2022-10-22T07:06:13.115Z,48.42
2022-10-22T07:08:39.966Z,48.59
2022-10-22T07:11:07.923Z,48.67
2022-10-22T07:13:35.091Z,48.51
2022-10-22T07:16:01.696Z,48.41
2022-10-22T07:18:29.195Z,48.43
2022-10-22T07:20:55.721Z,48.14
2022-10-22T07:23:22.452Z,48.56
2022-10-22T07:25:48.984Z,48.38
2022-10-22T07:28:15.481Z,48.29
2022-10-22T07:30:42.380Z,48.30
2022-10-22T07:33:09.390Z,48.11
2022-10-22T07:35:39.014Z,48.18
2022-10-22T07:38:06.186Z,47.93
2022-10-22T07:40:33.057Z,48.18
2022-10-22T07:43:01.165Z,47.97
2022-10-22T07:45:28.277Z,48.00
2022-10-22T07:47:54.772Z,47.78
2022-10-22T07:50:24.121Z,47.81
2022-10-22T07:52:52.904Z,47.77
2022-10-22T07:55:25.577Z,47.54
2022-10-22T07:57:54.194Z,47.41
2022-10-22T08:00:24.593Z,47.28
2022-10-22T08:02:52.390Z,47.43
2022-10-22T08:05:19.271Z,47.40
2022-10-22T08:07:46.144Z,47.34
2022-10-22T08:10:16.389Z,47.35
2022-10-22T08:12:44.542Z,47.10
2022-10-22T08:15:12.848Z,47.43
2022-10-22T08:17:39.664Z,46.99
2022-10-22T08:20:07.035Z,47.02
2022-10-22T08:22:34.755Z,46.92
2022-10-22T08:25:01.199Z,46.50
2022-10-22T08:27:27.934Z,46.35
2022-10-22T08:29:54.757Z,46.15
2022-10-22T08:32:23.896Z,46.18
2022-10-22T08:34:50.667Z,45.98
2022-10-22T08:37:20.278Z,46.04
2022-10-22T08:39:49.263Z,45.88
2022-10-22T08:42:45.620Z,45.82
2022-10-22T08:45:22.858Z,45.52
2022-10-22T08:48:08.739Z,45.47
2022-10-22T08:50:40.780Z,45.58
2022-10-22T08:53:17.841Z,45.47
2022-10-22T08:55:47.523Z,45.31
2022-10-22T08:58:36.168Z,45.24
2022-10-22T09:01:32.975Z,45.39
2022-10-22T09:04:27.326Z,45.12
2022-10-22T09:06:54.508Z,45.10
2022-10-22T09:09:21.113Z,45.30
2022-10-22T09:11:53.058Z,45.33
2022-10-22T09:14:21.496Z,45.69
2022-10-22T09:17:15.083Z,45.42
2022-10-22T09:19:54.297Z,45.92
2022-10-22T09:22:51.173Z,45.91
2022-10-22T09:25:28.266Z,45.94
2022-10-22T09:27:58.371Z,46.10
2022-10-22T09:30:29.918Z,46.08
2022-10-22T09:33:24.728Z,45.53
2022-10-22T09:35:58.584Z,45.67
2022-10-22T09:38:27.621Z,45.41
2022-10-22T09:40:55.701Z,45.73
2022-10-22T09:43:36.096Z,47.94
2022-10-22T09:46:04.706Z,50.73
2022-10-22T09:49:10.479Z,50.69
2022-10-22T09:51:58.461Z,49.69
2022-10-22T09:54:46.341Z,51.54
2022-10-22T09:57:18.824Z,52.04
2022-10-22T09:59:54.694Z,52.52
2022-10-22T10:02:39.232Z,52.96
2022-10-22T10:05:06.485Z,53.31
2022-10-22T10:07:35.316Z,52.88
2022-10-22T10:10:07.057Z,51.20
2022-10-22T10:13:05.695Z,49.78
2022-10-22T10:15:41.844Z,49.51
2022-10-22T10:18:46.773Z,49.07
2022-10-22T10:21:35.768Z,49.01
2022-10-22T10:24:42.565Z,48.75
2022-10-22T10:27:30.899Z,48.67
2022-10-22T10:30:17.648Z,48.88
2022-10-22T10:33:05.868Z,48.88
2022-10-22T10:35:55.060Z,48.70
2022-10-22T10:38:46.166Z,48.34
2022-10-22T10:41:27.650Z,48.52
2022-10-22T10:44:12.565Z,48.45
2022-10-22T10:46:50.535Z,48.18
2022-10-22T10:49:23.101Z,48.39
2022-10-22T10:52:22.662Z,48.42
2022-10-22T10:55:14.592Z,48.40
2022-10-22T10:58:15.339Z,47.94
2022-10-22T11:01:18.070Z,48.14
2022-10-22T11:04:20.250Z,47.90
2022-10-22T11:06:48.449Z,47.95
2022-10-22T11:09:24.374Z,47.97
2022-10-22T11:11:55.807Z,48.29
2022-10-22T11:14:44.191Z,48.00
2022-10-22T11:17:17.794Z,47.40
2022-10-22T11:19:52.318Z,47.82
2022-10-22T11:22:28.823Z,47.44
2022-10-22T11:25:04.062Z,47.78
2022-10-22T11:27:38.672Z,47.21
2022-10-22T11:30:17.110Z,47.46
2022-10-22T11:32:47.891Z,47.77
2022-10-22T11:35:26.040Z,47.85
2022-10-22T11:37:54.335Z,47.94
2022-10-22T11:40:40.299Z,48.04
2022-10-22T11:43:12.166Z,47.93
2022-10-22T11:45:46.695Z,47.88
2022-10-22T11:48:21.182Z,47.74
2022-10-22T11:50:53.017Z,47.98
2022-10-22T11:53:30.580Z,47.91
2022-10-22T11:55:59.906Z,47.78
2022-10-22T11:58:29.905Z,48.03
2022-10-22T12:01:02.464Z,47.93
2022-10-22T12:03:31.903Z,47.59
2022-10-22T12:06:15.292Z,47.70
2022-10-22T12:08:56.796Z,47.67
2022-10-22T12:11:43.633Z,47.99
2022-10-22T12:14:22.947Z,47.84
2022-10-22T12:16:56.961Z,48.04
2022-10-22T12:19:24.042Z,47.81
2022-10-22T12:21:55.638Z,47.80
2022-10-22T12:24:24.398Z,47.84
2022-10-22T12:26:52.643Z,47.85
2022-10-22T12:29:23.708Z,48.22
2022-10-22T12:31:50.623Z,47.83
2022-10-22T12:34:26.865Z,48.01
2022-10-22T12:36:53.501Z,48.39
2022-10-22T12:39:27.781Z,48.18
2022-10-22T12:41:57.160Z,48.26
2022-10-22T12:44:23.879Z,48.36
2022-10-22T12:46:54.608Z,48.43
2022-10-22T12:49:45.524Z,48.50
2022-10-22T12:52:38.575Z,48.32
2022-10-22T12:55:28.215Z,48.01
2022-10-22T12:57:54.712Z,48.17
2022-10-22T13:00:25.934Z,48.20
2022-10-22T13:02:52.875Z,47.89
2022-10-22T13:05:19.267Z,47.92
2022-10-22T13:07:50.807Z,47.87
2022-10-22T13:10:18.585Z,47.92
2022-10-22T13:12:48.904Z,47.86
2022-10-22T13:15:29.923Z,48.12
2022-10-22T13:18:19.079Z,48.01
2022-10-22T13:20:56.752Z,48.25
2022-10-22T13:23:25.101Z,48.27
2022-10-22T13:25:59.208Z,48.38
2022-10-22T13:28:26.454Z,48.37
2022-10-22T13:31:08.755Z,48.61
2022-10-22T13:33:42.171Z,49.24
2022-10-22T13:36:09.475Z,49.24
2022-10-22T13:38:35.931Z,49.00
2022-10-22T13:41:04.748Z,49.04
2022-10-22T13:43:33.367Z,49.02
2022-10-22T13:46:00.194Z,49.07
2022-10-22T13:48:26.888Z,48.98
2022-10-22T13:50:53.556Z,49.30
2022-10-22T13:53:24.569Z,48.93
2022-10-22T13:55:51.930Z,49.13
2022-10-22T13:58:20.367Z,49.36
2022-10-22T14:00:54.415Z,49.03
2022-10-22T14:03:21.951Z,49.38
2022-10-22T14:05:48.496Z,49.29
2022-10-22T14:08:16.942Z,49.51
2022-10-22T14:10:43.472Z,49.49
2022-10-22T14:13:14.136Z,49.50
2022-10-22T14:15:41.862Z,49.94
2022-10-22T14:18:08.361Z,49.63
2022-10-22T14:20:37.964Z,49.47
2022-10-22T14:23:15.103Z,49.44
2022-10-22T14:25:41.635Z,49.26
2022-10-22T14:28:11.097Z,49.49
2022-10-22T14:30:37.629Z,49.46
2022-10-22T14:33:19.487Z,49.64
2022-10-22T14:35:45.997Z,49.85
2022-10-22T14:38:12.507Z,49.71
2022-10-22T14:40:39.308Z,49.33
2022-10-22T14:43:05.955Z,48.81
2022-10-22T14:45:34.733Z,49.04
2022-10-22T14:48:02.542Z,48.89
2022-10-22T14:50:29.227Z,49.05
2022-10-22T14:52:57.727Z,48.83
2022-10-22T14:55:26.384Z,49.05
2022-10-22T14:57:53.702Z,48.50
2022-10-22T15:00:20.260Z,48.73
2022-10-22T15:02:47.257Z,49.04
2022-10-22T15:05:14.024Z,49.03
2022-10-22T15:07:40.698Z,49.11
2022-10-22T15:10:08.067Z,49.16
2022-10-22T15:12:34.530Z,48.83
2022-10-22T15:15:01.251Z,48.79
2022-10-22T15:17:28.155Z,48.85
2022-10-22T15:19:56.230Z,48.77
2022-10-22T15:22:22.939Z,48.69
2022-10-22T15:24:49.642Z,48.95
2022-10-22T15:27:16.095Z,48.79
2022-10-22T15:29:42.630Z,48.88
2022-10-22T15:32:10.423Z,48.67
2022-10-22T15:34:37.739Z,48.60
2022-10-22T15:37:05.808Z,48.93
2022-10-22T15:39:33.745Z,48.68
2022-10-22T15:42:00.255Z,48.88
2022-10-22T15:44:28.927Z,49.00
2022-10-22T15:46:55.571Z,49.40
2022-10-22T15:49:26.083Z,49.29
2022-10-22T15:51:52.827Z,49.29
2022-10-22T15:54:21.407Z,49.39
2022-10-22T16:01:41.199Z,49.27
2022-10-22T16:04:08.036Z,49.41
2022-10-22T16:06:45.183Z,49.15
2022-10-22T16:09:13.518Z,49.23
2022-10-22T16:11:40.895Z,49.37
2022-10-22T16:14:07.443Z,49.07
2022-10-22T16:16:34.893Z,49.64
2022-10-22T16:19:01.747Z,49.63
2022-10-22T16:21:28.338Z,49.15
2022-10-22T16:23:54.819Z,49.43
2022-10-22T16:26:21.334Z,49.44
2022-10-22T16:28:48.835Z,49.43
2022-10-22T16:31:17.056Z,49.31
2022-10-22T16:33:46.434Z,49.28
2022-10-22T16:36:18.221Z,49.57
2022-10-22T16:38:45.134Z,50.22
2022-10-22T16:41:15.667Z,50.71
2022-10-22T16:43:42.752Z,49.86
2022-10-22T16:46:09.227Z,49.65
2022-10-22T16:48:37.758Z,49.71
2022-10-22T16:51:10.507Z,49.94
2022-10-22T16:53:36.967Z,50.71
2022-10-22T16:56:03.522Z,50.67
2022-10-22T16:58:29.991Z,50.53
2022-10-22T17:00:56.508Z,51.12
2022-10-22T17:03:25.995Z,51.28
2022-10-22T17:05:54.141Z,50.87
2022-10-22T17:08:20.635Z,52.13
2022-10-22T17:10:47.584Z,52.42
2022-10-22T17:13:14.354Z,53.35
2022-10-22T17:15:41.327Z,53.07
2022-10-22T17:18:07.819Z,52.48
2022-10-22T17:20:34.268Z,52.88
2022-10-22T17:23:00.726Z,51.81
2022-10-22T17:25:36.982Z,51.86
2022-10-22T17:28:03.450Z,52.45
2022-10-22T17:30:30.409Z,52.21
2022-10-22T17:32:56.922Z,52.31
2022-10-22T17:35:23.664Z,52.28
2022-10-22T17:37:50.118Z,52.37
2022-10-22T17:40:16.587Z,51.96
2022-10-22T17:42:45.327Z,52.14
2022-10-22T17:45:11.782Z,52.17
2022-10-22T17:47:38.377Z,52.00
2022-10-22T17:50:05.346Z,52.09
2022-10-22T17:52:31.802Z,52.27
2022-10-22T17:54:58.318Z,51.77
2022-10-22T17:57:24.820Z,52.18
2022-10-22T18:02:17.764Z,51.81
2022-10-22T18:04:44.573Z,51.71
2022-10-22T18:07:11.255Z,51.82
2022-10-22T18:09:38.705Z,51.88
2022-10-22T18:12:05.415Z,51.37
2022-10-22T18:14:31.855Z,51.48
2022-10-22T18:16:58.310Z,51.37
2022-10-22T18:19:25.191Z,51.43
2022-10-22T18:21:51.916Z,51.60
2022-10-22T18:24:18.474Z,51.26
2022-10-22T18:26:47.019Z,51.58
2022-10-22T18:29:15.247Z,51.18
2022-10-22T18:31:42.042Z,51.46
2022-10-22T18:34:08.502Z,51.35
2022-10-22T18:36:34.966Z,50.97
2022-10-22T18:41:28.781Z,51.30
2022-10-22T18:43:59.768Z,50.98
2022-10-22T18:46:26.493Z,50.97
2022-10-22T18:48:56.286Z,51.11
2022-10-22T18:51:23.086Z,50.79
2022-10-22T18:54:05.363Z,50.83
2022-10-22T18:56:32.141Z,50.98
2022-10-22T18:58:58.854Z,50.58
2022-10-22T19:01:29.441Z,50.69
2022-10-22T19:03:56.603Z,50.49
2022-10-22T19:06:35.799Z,50.52
2022-10-22T19:09:03.835Z,50.64
2022-10-22T19:11:30.391Z,50.64
2022-10-22T19:13:56.875Z,50.60
2022-10-22T19:16:23.934Z,50.22
2022-10-22T19:18:51.940Z,50.54
2022-10-22T19:21:18.861Z,50.50
2022-10-22T19:26:17.705Z,50.76
2022-10-22T19:28:44.695Z,50.36
2022-10-22T19:31:13.501Z,50.58
2022-10-22T19:33:40.017Z,50.67
2022-10-22T19:36:09.353Z,50.71
2022-10-22T19:38:38.018Z,50.77
2022-10-22T19:41:09.720Z,50.45
2022-10-22T19:43:36.173Z,50.33
2022-10-22T19:46:04.113Z,50.78
2022-10-22T19:48:30.548Z,50.88
2022-10-22T19:51:04.764Z,50.62
2022-10-22T19:53:34.143Z,50.71
2022-10-22T19:56:00.773Z,50.59
2022-10-22T19:58:27.807Z,50.99
2022-10-22T20:00:54.370Z,50.81
2022-10-22T20:03:20.891Z,50.69
2022-10-22T20:05:47.659Z,50.68
2022-10-22T20:08:14.148Z,50.74
2022-10-22T20:10:40.655Z,50.73
2022-10-22T20:15:33.503Z,50.33
2022-10-22T20:17:59.944Z,50.45
2022-10-22T20:20:26.662Z,50.22
2022-10-22T20:22:53.178Z,50.26
2022-10-22T20:25:19.628Z,50.38
2022-10-22T20:27:46.415Z,50.55
2022-10-22T20:30:13.002Z,50.53
2022-10-22T20:32:40.036Z,50.38
2022-10-22T20:35:07.191Z,50.27
2022-10-22T20:37:34.007Z,50.74
2022-10-22T20:40:00.468Z,50.40
2022-10-22T20:42:26.928Z,50.53
2022-10-22T20:44:53.368Z,50.40
2022-10-22T20:47:19.816Z,50.45
2022-10-22T20:49:46.381Z,50.35
2022-10-22T20:52:13.090Z,50.37
2022-10-22T20:54:42.406Z,50.09
2022-10-22T20:57:08.886Z,50.42
2022-10-22T20:59:35.403Z,50.17
2022-10-22T21:02:01.933Z,50.29
2022-10-22T21:04:28.542Z,50.55
2022-10-22T21:06:55.979Z,50.11
2022-10-22T21:09:22.789Z,50.31
2022-10-22T21:11:49.647Z,50.28
2022-10-22T21:14:17.736Z,50.15
2022-10-22T21:16:45.270Z,50.14
2022-10-22T21:19:11.749Z,50.37
2022-10-22T21:21:38.240Z,50.09
2022-10-22T21:24:04.790Z,50.17
2022-10-22T21:26:31.245Z,50.13
2022-10-22T21:31:26.099Z,49.79
2022-10-22T21:33:53.213Z,49.20
2022-10-22T21:36:22.657Z,49.23
2022-10-22T21:38:51.335Z,49.29
2022-10-22T21:41:18.174Z,49.17
2022-10-22T21:43:45.114Z,49.08
2022-10-22T21:46:18.677Z,49.20
2022-10-22T21:48:45.331Z,49.43
2022-10-22T21:51:13.520Z,49.57
2022-10-22T21:53:40.031Z,49.69
2022-10-22T21:56:07.622Z,49.91
2022-10-22T21:58:35.225Z,49.78
2022-10-22T22:01:01.992Z,49.54
2022-10-22T22:03:28.587Z,49.55
2022-10-22T22:06:01.960Z,49.74
2022-10-22T22:08:28.555Z,49.75
2022-10-22T22:11:08.852Z,49.68
2022-10-22T22:13:35.755Z,49.84
2022-10-22T22:16:06.346Z,49.65
2022-10-22T22:18:32.912Z,49.83
2022-10-22T22:20:59.664Z,49.71
2022-10-22T22:23:26.214Z,49.77
2022-10-22T22:25:52.681Z,49.53
2022-10-22T22:28:19.125Z,49.59
2022-10-22T22:30:45.582Z,49.59
2022-10-22T22:33:12.635Z,49.88
2022-10-22T22:38:10.451Z,49.63
2022-10-22T22:40:38.456Z,49.44
2022-10-22T22:43:05.101Z,49.38
2022-10-22T22:45:31.555Z,49.59
2022-10-22T22:47:58.127Z,49.73
2022-10-22T22:50:24.565Z,49.74
2022-10-22T22:52:51.006Z,49.75
2022-10-22T22:55:17.495Z,49.58
2022-10-22T22:57:44.003Z,49.81
2022-10-22T23:00:10.986Z,49.68
2022-10-22T23:02:37.450Z,49.40
2022-10-22T23:05:04.010Z,49.50
2022-10-22T23:07:30.474Z,49.57
2022-10-22T23:09:56.923Z,49.34
2022-10-22T23:12:23.703Z,49.53
2022-10-22T23:14:51.478Z,49.38
2022-10-22T23:17:18.547Z,49.25
2022-10-22T23:19:45.079Z,49.28
2022-10-22T23:22:11.848Z,49.23
2022-10-22T23:24:38.355Z,49.35
2022-10-22T23:27:05.114Z,49.31
2022-10-22T23:29:33.174Z,49.27
2022-10-22T23:32:01.242Z,48.88
2022-10-22T23:34:27.915Z,48.79
2022-10-22T23:36:54.649Z,49.07
2022-10-22T23:39:23.431Z,48.81
2022-10-22T23:41:49.984Z,48.71
2022-10-22T23:44:16.467Z,48.66
2022-10-22T23:46:43.081Z,48.63
2022-10-22T23:49:09.717Z,48.60
2022-10-22T23:51:36.180Z,49.17
2022-10-22T23:54:07.363Z,48.88
2022-10-22T23:56:35.771Z,48.75
2022-10-22T23:59:02.374Z,48.79
